Garmanda Airport

RU-0738 · Russia

METAR history RU-0738 · Garmanda Airport

Below you see METARs of the last few days. Select a year to browse through older METARs, from the year 2007 onwards.

June 24, 2024

Time Code Weather Temp. Visibility Ceiling Wind METAR/SPECI
16:30
V
14 °C 10 km+ - 200° 200° 11 kt METAR UHMM 240530Z 20006MPS 9999 SCT026CB 14/08 Q1009 R10/70D NOSIG RMK MT OBSC QFE742 R28/26006MPS
16:30
V
14 °C 10 km+ - 200° 200° 11 kt METAR UHMM 240530Z 20006MPS 9999 SCT026CB 14/08 Q1009 R10/CLRD70 NOSIG RMK MT OBSC QFE742 R28/26006MPS
16:00
V
15 °C 10 km+ - 210° 210° 11 kt METAR UHMM 240500Z 21006MPS 9999 SCT026CB 15/09 Q1009 R10/70D NOSIG RMK MT OBSC QFE742 R28/26006MPS
15:30
V
16 °C 10 km+ - 220° 220° 11 kt METAR UHMM 240430Z 22006MPS 9999 SCT026CB 16/09 Q1009 R10/CLRD70 NOSIG RMK QFE742 R28/26006MPS
15:00
V
16 °C 10 km+ - 210° 210° 11 kt METAR UHMM 240400Z 21006MPS 9999 FEW026CB 16/09 Q1009 R10/CLRD70 NOSIG RMK QFE742 R28/26005MPS
14:30
V
17 °C 10 km+ - 210° 210° 11 kt METAR UHMM 240330Z 21006MPS 9999 FEW023 17/09 Q1009 R10/CLRD70 NOSIG RMK QFE742 R28/27005MPS
14:00
V
16 °C 10 km+ - 210° 210° 9 kt METAR UHMM 240300Z 21005MPS 9999 FEW023 16/10 Q1009 R10/CLRD70 NOSIG RMK QFE742 R28/26005MPS
13:30
V
16 °C 10 km+ - 200° 200° 7 kt METAR UHMM 240230Z 20004MPS 9999 FEW023 16/10 Q1009 R10/CLRD70 NOSIG RMK QFE742 R28/26004MPS
13:00
V
15 °C 10 km+ - 210° 210° 7 kt METAR UHMM 240200Z 21004MPS 9999 FEW020 15/10 Q1010 R10/70D NOSIG RMK QFE742 R28/25004MPS
12:30
V
15 °C 10 km+ - 230° 230° 3 kt METAR UHMM 240130Z 23002MPS 9999 FEW020 15/09 Q1010 R10/CLRD70 NOSIG RMK QFE743 R28/30002MPS 250V340
12:00
V
13 °C 10 km+ - 250° 250° 1 kt METAR UHMM 240100Z 25001MPS 9999 FEW020 13/09 Q1010 R10/CLRD70 NOSIG RMK QFE743 R28/29002MPS 230V350
11:48
V
13 °C 10 km+ - 170° 170° 1 kt METAR UHMM 240048Z 17001MPS 9999 SCT013 13/09 Q1010 R10/70D NOSIG RMK MT OBSC QFE743 R28/23002MPS 160V280
11:30
M
12 °C 10 km+ 1,000 ft 170° 170° 1 kt METAR UHMM 240030Z 17001MPS 9999 BKN010 12/08 Q1010 R10/CLRD70 NOSIG RMK MT OBSC QFE743 R28/34002MPS 240V360
11:00
I
10 °C 10 km+ 900 ft 240° 240° 1 kt METAR UHMM 240000Z 24001MPS 9999 BKN009 10/08 Q1011 R10/70D NOSIG RMK MT OBSC QFE743 R28/30002MPS 260V330
10:30
I
9 °C 10 km+ 700 ft 360° 360° 0 kt METAR UHMM 232330Z 00000MPS 9999 OVC007 09/08 Q1011 R10/CLRD70 NOSIG RMK MT OBSC QFE743 R28/24001MPS
10:00
I
8 °C 10 km+ 600 ft 360° 360° 0 kt METAR UHMM 232300Z 00000MPS 9999 OVC006 08/08 Q1011 R10/70D NOSIG RMK MT OBSC QFE744 R28/02001MPS
09:30
I
7 °C 10 km+ 500 ft 130° 130° 1 kt METAR UHMM 232230Z 13001MPS 9999 OVC005 07/07 Q1012 R10/CLRD70 NOSIG RMK MT OBSC QFE744 R28/16001MPS
09:00
I
7 °C 10 km+ 500 ft 360° 360° 0 kt METAR UHMM 232200Z 00000MPS 9999 OVC005 07/07 Q1012 R10/70D NOSIG RMK MT OBSC QFE744 R28/11001MPS
08:55
I
7 °C 10 km+ 500 ft 360° 360° 0 kt METAR UHMM 232155Z 00000MPS 9999 OVC005 07/07 Q1012 R10/70D NOSIG RMK MT OBSC QFE744 R28/00000MPS
08:42
L
7 °C 8 km 400 ft 360° 360° 0 kt METAR UHMM 232142Z 00000MPS 8000 OVC004 07/07 Q1012 R10/19//60 NOSIG RMK MT OBSC QFE744 R28/00000MPS
08:30
L
7 °C 2.5 km 400 ft 090° 090° 3 kt METAR UHMM 232130Z 09002MPS 060V130 2500 1200W R10/1200D BR VV004 07/07 Q1012 R10/19//60 NOSIG RMK QFE744 R28/05001MPS
08:00
L
6 °C 1.1 km 400 ft 150° 150° 1 kt METAR UHMM 232100Z 15001MPS 1100 1000S R10/2000D BR VV004 06/06 Q1012 R10/19//60 TEMPO 0800 FG RMK QFE744 R28/00000MPS
07:49
L
6 °C 1.1 km 300 ft 360° 360° 0 kt METAR UHMM 232049Z 00000MPS 1100 0700E BCFG VV003 06/06 Q1012 R10/19//60 RMK QBB110 QFE744 R28/00000MPS
07:00
L
6 °C 400 m 200 ft 150° 150° 1 kt METAR UHMM 232000Z 15001MPS 0400 0150W R10/0175N FG VV002 06/06 Q1012 R10/19//60 RMK QBB080 QFE744 R28/00000MPS
06:00
L
5 °C 300 m 200 ft 320° 320° 1 kt METAR UHMM 231900Z 32001MPS 0300 0200W R10/0200N FG VV002 05/05 Q1012 RMK QBB080 QFE744 R28/00000MPS
05:40
L
5 °C 200 m 200 ft 300° 300° 1 kt METAR UHMM 231840Z 30001MPS 0200 R10/0200N FG VV002 05/05 Q1012 RMK QBB080 QFE744 R28/00000MPS
05:00
L
5 °C 200 m 100 ft 300° 300° 1 kt METAR UHMM 231800Z 30001MPS 0200 0100E R10/0200N FG VV001 05/05 Q1012 RMK QBB050 QFE744 R28/00000MPS
04:00
L
5 °C 200 m 100 ft 270° 270° 1 kt METAR UHMM 231700Z 27001MPS 0200 0100E R10/0200N FG VV001 05/05 Q1012 RMK QBB050 QFE744 R28/00000MPS
03:00
L
6 °C 100 m 100 ft 230° 230° 1 kt METAR UHMM 231600Z 23001MPS 0100 R10/0100N FG VV001 06/06 Q1012 RMK QBB050 QFE744 R28/00000MPS
02:00
L
6 °C 100 m 100 ft 280° 280° 1 kt METAR UHMM 231500Z 28001MPS 0100 R10/0100N FG VV001 06/06 Q1013 RMK QBB050 QFE745 R28/00000MPS
01:00
L
7 °C 100 m 100 ft 320° 320° 1 kt METAR UHMM 231400Z 32001MPS 0100 R10/0100N FG VV001 07/07 Q1013 RMK QBB050 QFE745 R28/33001MPS
00:12
L
7 °C 200 m 100 ft 280° 280° 1 kt METAR UHMM 231312Z 28001MPS 0200 0100W R10/0100N FG VV001 07/07 Q1013 RMK QBB050 QFE745 R28/30001MPS
00:00
L
7 °C 300 m 200 ft 310° 310° 1 kt METAR UHMM 231300Z 31001MPS 0300 0200W R10/0200N FG VV002 07/07 Q1013 RMK QBB060 QFE745 R28/30002MPS

June 23, 2024

Time Code Weather Temp. Visibility Ceiling Wind METAR/SPECI
23:40
L
7 °C 500 m 200 ft 290° 290° 3 kt METAR UHMM 231240Z 29002MPS 0500 0300S R10/0500D FG VV002 07/07 Q1013 RMK QBB060 QFE745 R28/30002MPS
23:24
L
7 °C 2.3 km 200 ft 310° 310° 3 kt METAR UHMM 231224Z 31002MPS 280V350 2300 R10/1800D BR VV002 07/07 Q1013 RMK QBB070 QFE745 R28/26001MPS
23:00
L
7 °C 10 km+ 400 ft 330° 330° 1 kt METAR UHMM 231200Z 33001MPS 9999 BKN004 07/07 Q1013 RMK QBB120 MT OBSC QFE745 R28/27002MPS
22:54
L
7 °C 10 km+ 400 ft 320° 320° 1 kt METAR UHMM 231154Z 32001MPS 9999 BKN004 07/07 Q1013 RMK QBB120 MT OBSC QFE745 R28/28002MPS
22:00
V
8 °C 10 km+ - 280° 280° 3 kt METAR UHMM 231100Z 28002MPS 9999 NSC 08/08 Q1013 RMK QFE745 R28/30003MPS
21:00
V
11 °C 10 km+ - 250° 250° 1 kt METAR UHMM 231000Z 25001MPS 9999 FEW033 11/08 Q1013 R10/70D NOSIG RMK QFE745 R28/28003MPS
20:30
V
12 °C 10 km+ - 220° 220° 5 kt METAR UHMM 230930Z 22003MPS 9999 FEW033 12/08 Q1013 R10/CLRD70 NOSIG RMK QFE744 R28/29004MPS
20:00
V
13 °C 10 km+ - 210° 210° 7 kt METAR UHMM 230900Z 21004MPS 9999 FEW010 SCT033 13/09 Q1013 R10/70D NOSIG RMK MT OBSC QFE744 R28/29004MPS
19:30
V
13 °C 10 km+ - 210° 210° 9 kt METAR UHMM 230830Z 21005MPS 9999 FEW010 SCT033 13/09 Q1013 R10/CLRD70 NOSIG RMK MT OBSC QFE744 R28/27004MPS
19:00
V
14 °C 10 km+ - 210° 210° 7 kt METAR UHMM 230800Z 21004MPS 9999 FEW010 SCT033 14/09 Q1013 R10/70D NOSIG RMK MT OBSC QFE744 R28/27005MPS
18:30
V
14 °C 10 km+ 3,300 ft 220° 220° 9 kt METAR UHMM 230730Z 22005MPS 9999 FEW010 BKN033 14/09 Q1013 R10/CLRD70 NOSIG RMK MT OBSC QFE745 R28/28005MPS
18:00
V
14 °C 10 km+ 3,200 ft 220° 220° 9 kt METAR UHMM 230700Z 22005MPS 9999 FEW010 BKN032 14/09 Q1013 R10/CLRD70 NOSIG RMK MT OBSC QFE745 R28/27005MPS
17:30
V
14 °C 10 km+ 3,200 ft 220° 220° 9 kt METAR UHMM 230630Z 22005MPS 9999 FEW010 BKN032 14/09 Q1013 R10/CLRD70 NOSIG RMK MT OBSC QFE745 R28/27005MPS
17:00
V
14 °C 10 km+ 3,100 ft 220° 220° 9 kt METAR UHMM 230600Z 22005MPS 9999 FEW010 BKN031 14/10 Q1013 R10/70D NOSIG RMK MT OBSC QFE745 R28/26005MPS
16:30
M
14 °C 10 km+ 2,900 ft 220° 220° 9 kt METAR UHMM 230530Z 22005MPS 9999 OVC029 14/09 Q1013 R10/CLRD70 NOSIG RMK MT OBSC QFE745 R28/26005MPS
16:00
M
14 °C 10 km+ 2,900 ft 220° 220° 9 kt METAR UHMM 230500Z 22005MPS 9999 BKN029 14/09 Q1013 R10/70D NOSIG RMK MT OBSC QFE745 R28/25005MPS
15:30
V
15 °C 10 km+ 3,100 ft 210° 210° 9 kt METAR UHMM 230430Z 21005MPS 9999 BKN031 15/10 Q1013 R10/CLRD70 NOSIG RMK MT OBSC QFE745 R28/27005MPS
15:00
M
15 °C 10 km+ 3,000 ft 220° 220° 9 kt METAR UHMM 230400Z 22005MPS 9999 BKN030 15/10 Q1013 R10/70D NOSIG RMK MT OBSC QFE745 R28/27004MPS
14:30
M
16 °C 10 km+ 2,900 ft 220° 220° 7 kt METAR UHMM 230330Z 22004MPS 190V260 9999 BKN029 16/10 Q1013 R10/CLRD70 NOSIG RMK MT OBSC QFE745 R28/26004MPS 230V300
14:00
V
15 °C 10 km+ 3,100 ft 220° 220° 7 kt METAR UHMM 230300Z 22004MPS 9999 BKN031 15/10 Q1013 R10/70D NOSIG RMK MT OBSC QFE745 R28/26004MPS
13:30
V
14 °C 10 km+ 3,200 ft 220° 220° 7 kt METAR UHMM 230230Z 22004MPS 9999 BKN032 14/10 Q1014 R10/CLRD70 NOSIG RMK MT OBSC QFE745 R28/28004MPS 230V310
13:00
V
14 °C 10 km+ 3,300 ft 220° 220° 5 kt METAR UHMM 230200Z 22003MPS 9999 SCT018 BKN033 14/10 Q1014 R10/CLRD70 NOSIG RMK MT OBSC QFE745 R28/25004MPS
12:30
V
14 °C 10 km+ 3,600 ft 200° 200° 3 kt METAR UHMM 230130Z 20002MPS 9999 SCT020 BKN036 14/10 Q1014 R10/CLRD70 NOSIG RMK MT OBSC QFE746 R28/27003MPS 220V300
12:00
V
13 °C 10 km+ 3,300 ft 240° 240° 5 kt METAR UHMM 230100Z 24003MPS 190V260 9999 SCT017 BKN033 13/10 Q1014 R10/CLRD70 NOSIG RMK MT OBSC QFE746 R28/29003MPS
11:30
V
12 °C 10 km+ 3,500 ft 250° 250° 3 kt METAR UHMM 230030Z 25002MPS 210V290 9999 SCT016 OVC035 12/10 Q1014 R10/CLRD70 NOSIG RMK MT OBSC QFE746 R28/31002MPS 270V340
11:00
V
12 °C 10 km+ 3,400 ft 230° 230° 3 kt METAR UHMM 230000Z 23002MPS 9999 FEW010 OVC034 12/09 Q1015 R10/19//65 NOSIG RMK MT OBSC QFE746 R28/31003MPS
10:30
V
10 °C 10 km+ 3,200 ft 250° 250° 3 kt METAR UHMM 222330Z 25002MPS 210V290 9999 FEW010 OVC032 10/10 Q1015 R10/19//65 NOSIG RMK MT OBSC QFE746 R28/31002MPS
10:00
V
10 °C 10 km+ 3,300 ft 230° 230° 3 kt METAR UHMM 222300Z 23002MPS 9999 SCT010 OVC033 10/10 Q1015 R10/19//65 NOSIG RMK MT OBSC QFE746 R28/28002MPS 250V330
09:30
V
9 °C 10 km+ 3,100 ft 220° 220° 3 kt METAR UHMM 222230Z 22002MPS 9999 SCT010 OVC031 09/09 Q1015 R10/19//65 NOSIG RMK MT OBSC QFE746 R28/28003MPS
09:00
M
9 °C 10 km+ 2,600 ft 210° 210° 3 kt METAR UHMM 222200Z 21002MPS 9999 SCT008 OVC026 09/09 Q1015 R10/19//65 NOSIG RMK MT OBSC QFE746 R28/28003MPS
08:30
M
9 °C 10 km+ 3,000 ft 210° 210° 3 kt METAR UHMM 222130Z 21002MPS 9999 SCT007 OVC030 09/09 Q1015 R10/19//65 NOSIG RMK MT OBSC QFE746 R28/27003MPS
08:00
M
9 °C 10 km+ 2,700 ft 240° 240° 1 kt METAR UHMM 222100Z 24001MPS 9999 FEW003 OVC027 09/09 Q1015 R10/19//65 NOSIG RMK QBB100 MT OBSC QFE746 R28/29003MPS
07:00
M
10 °C 10 km+ 1,900 ft 180° 180° 3 kt METAR UHMM 222000Z 18002MPS 100V270 9999 FEW003 OVC019 10/10 Q1015 R10/19//65 RMK QBB100 MT OBSC QFE746 R28/00000MPS
06:00
M
10 °C 10 km+ 1,700 ft 130° 130° 5 kt METAR UHMM 221900Z 13003MPS 9999 FEW006 OVC017CB 10/10 Q1015 RMK MT OBSC QFE746 R28/16002MPS
05:00
M
10 °C 10 km+ 1,600 ft 080° 080° 5 kt METAR UHMM 221800Z 08003MPS 9999 -SHRA OVC016CB 10/10 Q1014 RMK MT OBSC QFE746 R28/09001MPS
04:00
M
10 °C 10 km+ 1,800 ft 090° 090° 5 kt METAR UHMM 221700Z 09003MPS 9999 -SHRA OVC018CB 10/10 Q1015 RMK MT OBSC QFE746 R28/08002MPS
03:00
M
10 °C 10 km+ 1,900 ft 090° 090° 3 kt METAR UHMM 221600Z 09002MPS 9999 OVC019 10/10 Q1015 RMK QFE746 R28/10001MPS
02:00
M
10 °C 10 km+ 1,700 ft 080° 080° 5 kt METAR UHMM 221500Z 08003MPS 9999 OVC017CB 10/10 Q1015 RMK QFE746 R28/10001MPS
01:00
M
10 °C 10 km+ 1,500 ft 080° 080° 5 kt METAR UHMM 221400Z 08003MPS 9999 OVC015CB 10/10 Q1014 RMK QFE746 R28/10002MPS
00:00
M
10 °C 10 km+ 1,600 ft 090° 090° 5 kt METAR UHMM 221300Z 09003MPS 9999 OVC016CB 10/10 Q1014 RMK QFE746 R28/11002MPS

June 22, 2024

Time Code Weather Temp. Visibility Ceiling Wind METAR/SPECI
23:00
M
10 °C 10 km+ 1,700 ft 080° 080° 3 kt METAR UHMM 221200Z 08002MPS 9999 OVC017CB 10/10 Q1014 RMK QFE746 R28/11003MPS
22:00
M
11 °C 10 km+ 1,600 ft 090° 090° 5 kt METAR UHMM 221100Z 09003MPS 9999 FEW012 OVC016CB 11/11 Q1015 RMK MT OBSC QFE746 R28/11002MPS
21:00
M
11 °C 10 km+ 1,500 ft 100° 100° 5 kt METAR UHMM 221000Z 10003MPS 9999 -SHRA OVC015CB 11/11 Q1014 RMK MT OBSC QFE746 R28/13004MPS
20:00
M
11 °C 10 km+ 1,700 ft 090° 090° 9 kt METAR UHMM 220900Z 09005MPS 9999 -SHRA OVC017CB 11/11 Q1014 R10/290260 NOSIG RMK MT OBSC QFE745 R28/12003MPS
19:30
M
11 °C 10 km+ 1,700 ft 090° 090° 7 kt METAR UHMM 220830Z 09004MPS 9999 OVC017CB 11/11 Q1013 R10/290260 NOSIG RMK MT OBSC QFE745 R28/13003MPS
19:00
M
12 °C 10 km+ 2,300 ft 090° 090° 7 kt METAR UHMM 220800Z 09004MPS 9999 OVC023CB 12/12 Q1013 R10/290260 NOSIG RMK MT OBSC QFE745 R28/12003MPS
18:30
M
12 °C 10 km+ 2,300 ft 100° 100° 9 kt METAR UHMM 220730Z 10005MPS 9999 OVC023CB 12/11 Q1013 R10/290260 NOSIG RMK MT OBSC QFE745 R28/11003MPS
18:00
M
12 °C 10 km+ 2,600 ft 100° 100° 9 kt METAR UHMM 220700Z 10005MPS 9999 OVC026CB 12/11 Q1013 R10/290260 NOSIG RMK MT OBSC QFE745 R28/11003MPS
17:30
M
11 °C 10 km+ 2,400 ft 090° 090° 9 kt METAR UHMM 220630Z 09005MPS 9999 OVC024CB 11/11 Q1013 R10/290260 TEMPO 3100 -SHRA BR RMK MT OBSC QFE745 R28/11004MPS
17:00
M
11 °C 10 km+ 2,200 ft 090° 090° 9 kt METAR UHMM 220600Z 09005MPS 9999 -SHRA OVC022CB 11/11 Q1013 R10/290260 TEMPO 3100 -SHRA BR RMK MT OBSC QFE745 R28/11003MPS
16:30
M
12 °C 8 km 2,000 ft 080° 080° 11 kt METAR UHMM 220530Z 08006MPS 8000 -SHRA OVC020CB 12/12 Q1013 R10/290260 TEMPO 3100 -SHRA BR RMK MT OBSC QFE745 R28/11004MPS
16:00
M
12 °C 8 km 2,000 ft 090° 090° 11 kt METAR UHMM 220500Z 09006MPS 8000 -SHRA OVC020CB 12/12 Q1012 R10/290260 TEMPO 3100 -SHRA BR RMK MT OBSC QFE744 R28/11005MPS
15:30
M
12 °C 8 km 2,000 ft 080° 080° 13 kt METAR UHMM 220430Z 08007MPS 8000 -SHRA OVC020CB 12/12 Q1012 R10/290260 TEMPO 3100 -SHRA BR RMK MT OBSC QFE744 R28/11005MPS
Report a change